Hovedside
METAR-TAF:

METAR-TAF

Lufthavner :

Portland-Hillsboro Airport

Hillsboro, Oregon, USA

breddegrad: 45-32-53N, lengdegrad: 122-57-16W, høyde over havet: 62 m

Gjeldene værobservasjon

Denne rapporten ble laget for 1 time og 9 minutter siden, klokken 07:53 UTC
Vind 6 kt fra Øst-nordøst med vindkast opp mot 15 kt
Temperatur 8°C
Luftfuktighet 53%
Trykk 1022 hPa
Sikt: 16.1 km
Skyfri himmel

METAR: KHIO 180753Z AUTO 07006G15KT 10SM CLR 08/M01 A3017 RMK AO2 SLP214 T00831011 401390022

Tid: 01:02 (09:02 UTC)

Varsel

Denne rapporten ble laget for 3 timer og 24 minutter siden, klokken 05:38 UTC
Varsel gyldig fra 18. klokken 06 UTC til 19. klokken 06 UTC
Vind 9 kt fra Øst-nordøst
Sikt: 10 km
Skyfri himmel
Fra 18. klokken 0900 UTC
Vind 3 kt fra Nordøst
Sikt: 10 km
Skyfri himmel

TAF: KHIO 180538Z 1806/1906 07009KT P6SM SKC FM180900 05003KT P6SM SKC

Værobservasjoner og værvarsel for over 4000 flyplasser (METAR- og TAF-rapporter).

Tilgjengelige stasjoner er representert av de røde og gule prikkene på kartet.

Hold musepekeren over prikken for å se navnet på stasjonen.

Klikk så for å se værobservasjoner og -varsler.

For å forandre kartet kan du klikke på den grønne knappen med svart kryss for å zoome inn, på den grønne knappen med strek for å zoome ut, eller på de grønne pilene for å se tilstøtende kart.


METAR-TAF: